sensor_id;sensor_type;location;lat;lon;timestamp;P1;durP1;ratioP1;P2;durP2;ratioP2
74660;SDS011;63191;39.566;2.654;2023-04-10T00:00:16;3.70;;;1.20;;
74660;SDS011;63191;39.566;2.654;2023-04-10T00:02:42;4.00;;;1.20;;
74660;SDS011;63191;39.566;2.654;2023-04-10T00:05:10;4.20;;;1.00;;
74660;SDS011;63191;39.566;2.654;2023-04-10T00:07:35;5.70;;;1.40;;
74660;SDS011;63191;39.566;2.654;2023-04-10T00:10:01;3.70;;;1.00;;
74660;SDS011;63191;39.566;2.654;2023-04-10T00:12:27;4.30;;;1.10;;
74660;SDS011;63191;39.566;2.654;2023-04-10T00:14:55;3.70;;;0.90;;
74660;SDS011;63191;39.566;2.654;2023-04-10T00:17:21;5.00;;;1.10;;
74660;SDS011;63191;39.566;2.654;2023-04-10T00:19:46;4.20;;;1.30;;
74660;SDS011;63191;39.566;2.654;2023-04-10T00:22:12;6.60;;;1.40;;
74660;SDS011;63191;39.566;2.654;2023-04-10T00:24:38;5.30;;;1.40;;
74660;SDS011;63191;39.566;2.654;2023-04-10T00:27:04;5.20;;;1.40;;
74660;SDS011;63191;39.566;2.654;2023-04-10T00:29:29;4.70;;;1.30;;
74660;SDS011;63191;39.566;2.654;2023-04-10T00:31:55;3.90;;;1.30;;
74660;SDS011;63191;39.566;2.654;2023-04-10T00:34:21;5.70;;;1.00;;
74660;SDS011;63191;39.566;2.654;2023-04-10T00:36:48;3.80;;;1.00;;
74660;SDS011;63191;39.566;2.654;2023-04-10T00:39:13;4.70;;;1.20;;
74660;SDS011;63191;39.566;2.654;2023-04-10T00:41:39;5.10;;;1.20;;
74660;SDS011;63191;39.566;2.654;2023-04-10T00:44:05;4.80;;;1.00;;
74660;SDS011;63191;39.566;2.654;2023-04-10T00:46:31;3.90;;;0.90;;
74660;SDS011;63191;39.566;2.654;2023-04-10T00:48:57;2.90;;;0.70;;
74660;SDS011;63191;39.566;2.654;2023-04-10T00:51:24;5.50;;;1.10;;
74660;SDS011;63191;39.566;2.654;2023-04-10T00:53:51;4.90;;;0.90;;
74660;SDS011;63191;39.566;2.654;2023-04-10T00:56:19;5.00;;;1.10;;
74660;SDS011;63191;39.566;2.654;2023-04-10T00:58:46;4.80;;;1.00;;
74660;SDS011;63191;39.566;2.654;2023-04-10T01:01:12;3.20;;;0.80;;
74660;SDS011;63191;39.566;2.654;2023-04-10T01:03:41;3.50;;;0.80;;
74660;SDS011;63191;39.566;2.654;2023-04-10T01:06:15;2.90;;;0.80;;
74660;SDS011;63191;39.566;2.654;2023-04-10T01:08:56;2.40;;;0.70;;
74660;SDS011;63191;39.566;2.654;2023-04-10T01:17:08;4.00;;;0.60;;
74660;SDS011;63191;39.566;2.654;2023-04-10T01:20:08;2.10;;;0.60;;
74660;SDS011;63191;39.566;2.654;2023-04-10T01:26:02;2.70;;;0.60;;
74660;SDS011;63191;39.566;2.654;2023-04-10T01:31:57;2.00;;;0.50;;
74660;SDS011;63191;39.566;2.654;2023-04-10T01:34:31;3.00;;;0.80;;
74660;SDS011;63191;39.566;2.654;2023-04-10T01:37:04;4.50;;;0.80;;
74660;SDS011;63191;39.566;2.654;2023-04-10T01:39:36;2.60;;;0.60;;
74660;SDS011;63191;39.566;2.654;2023-04-10T01:42:06;3.20;;;0.70;;
74660;SDS011;63191;39.566;2.654;2023-04-10T01:44:35;2.80;;;0.80;;
74660;SDS011;63191;39.566;2.654;2023-04-10T01:47:03;4.20;;;0.80;;
74660;SDS011;63191;39.566;2.654;2023-04-10T01:49:31;3.90;;;0.60;;
74660;SDS011;63191;39.566;2.654;2023-04-10T01:51:59;3.70;;;0.70;;
74660;SDS011;63191;39.566;2.654;2023-04-10T01:54:32;2.50;;;0.70;;
74660;SDS011;63191;39.566;2.654;2023-04-10T01:57:00;3.60;;;0.70;;
74660;SDS011;63191;39.566;2.654;2023-04-10T01:59:28;4.00;;;1.10;;
74660;SDS011;63191;39.566;2.654;2023-04-10T02:01:59;4.50;;;1.00;;
74660;SDS011;63191;39.566;2.654;2023-04-10T02:04:26;2.80;;;0.70;;
74660;SDS011;63191;39.566;2.654;2023-04-10T02:07:07;3.30;;;1.00;;
74660;SDS011;63191;39.566;2.654;2023-04-10T02:09:56;4.30;;;1.00;;
74660;SDS011;63191;39.566;2.654;2023-04-10T02:12:31;4.00;;;1.00;;
74660;SDS011;63191;39.566;2.654;2023-04-10T02:15:10;3.20;;;0.80;;
74660;SDS011;63191;39.566;2.654;2023-04-10T02:17:38;2.90;;;0.80;;
74660;SDS011;63191;39.566;2.654;2023-04-10T02:20:07;2.80;;;0.80;;
74660;SDS011;63191;39.566;2.654;2023-04-10T02:22:34;4.10;;;1.20;;
74660;SDS011;63191;39.566;2.654;2023-04-10T02:25:03;3.30;;;0.80;;
74660;SDS011;63191;39.566;2.654;2023-04-10T02:27:32;3.30;;;0.70;;
74660;SDS011;63191;39.566;2.654;2023-04-10T02:30:04;3.70;;;0.80;;
74660;SDS011;63191;39.566;2.654;2023-04-10T02:32:33;3.80;;;1.00;;
74660;SDS011;63191;39.566;2.654;2023-04-10T02:34:59;3.60;;;1.10;;
74660;SDS011;63191;39.566;2.654;2023-04-10T02:37:26;3.20;;;0.80;;
74660;SDS011;63191;39.566;2.654;2023-04-10T02:39:52;3.50;;;1.10;;
74660;SDS011;63191;39.566;2.654;2023-04-10T02:42:19;2.90;;;0.80;;
74660;SDS011;63191;39.566;2.654;2023-04-10T02:44:46;3.80;;;0.80;;
74660;SDS011;63191;39.566;2.654;2023-04-10T02:47:12;4.00;;;1.10;;
74660;SDS011;63191;39.566;2.654;2023-04-10T02:49:39;4.90;;;1.30;;
74660;SDS011;63191;39.566;2.654;2023-04-10T02:52:04;4.40;;;1.00;;
74660;SDS011;63191;39.566;2.654;2023-04-10T02:54:30;4.60;;;1.10;;
74660;SDS011;63191;39.566;2.654;2023-04-10T02:56:56;3.40;;;1.10;;
74660;SDS011;63191;39.566;2.654;2023-04-10T02:59:22;5.00;;;0.80;;
74660;SDS011;63191;39.566;2.654;2023-04-10T03:01:49;2.80;;;0.90;;
74660;SDS011;63191;39.566;2.654;2023-04-10T03:04:16;4.40;;;1.00;;
74660;SDS011;63191;39.566;2.654;2023-04-10T03:06:43;4.10;;;1.00;;
74660;SDS011;63191;39.566;2.654;2023-04-10T03:09:09;3.70;;;0.80;;
74660;SDS011;63191;39.566;2.654;2023-04-10T03:11:34;4.20;;;0.70;;
74660;SDS011;63191;39.566;2.654;2023-04-10T03:14:00;3.40;;;0.70;;
74660;SDS011;63191;39.566;2.654;2023-04-10T03:16:26;3.00;;;0.80;;
74660;SDS011;63191;39.566;2.654;2023-04-10T03:18:52;3.70;;;0.70;;
74660;SDS011;63191;39.566;2.654;2023-04-10T03:21:18;2.40;;;0.70;;
74660;SDS011;63191;39.566;2.654;2023-04-10T03:23:43;2.90;;;0.70;;
74660;SDS011;63191;39.566;2.654;2023-04-10T03:26:09;3.00;;;0.70;;
74660;SDS011;63191;39.566;2.654;2023-04-10T03:28:35;2.80;;;0.60;;
74660;SDS011;63191;39.566;2.654;2023-04-10T03:31:04;2.10;;;0.60;;
74660;SDS011;63191;39.566;2.654;2023-04-10T03:33:30;3.20;;;0.70;;
74660;SDS011;63191;39.566;2.654;2023-04-10T03:35:56;3.70;;;0.60;;
74660;SDS011;63191;39.566;2.654;2023-04-10T03:38:22;1.80;;;0.60;;
74660;SDS011;63191;39.566;2.654;2023-04-10T03:40:48;2.30;;;0.60;;
74660;SDS011;63191;39.566;2.654;2023-04-10T03:43:16;2.80;;;0.70;;
74660;SDS011;63191;39.566;2.654;2023-04-10T03:45:42;2.40;;;0.60;;
74660;SDS011;63191;39.566;2.654;2023-04-10T03:48:08;2.00;;;0.60;;
74660;SDS011;63191;39.566;2.654;2023-04-10T03:50:35;3.20;;;0.90;;
74660;SDS011;63191;39.566;2.654;2023-04-10T03:53:01;3.90;;;0.80;;
74660;SDS011;63191;39.566;2.654;2023-04-10T03:55:27;3.20;;;1.00;;
74660;SDS011;63191;39.566;2.654;2023-04-10T03:57:52;4.80;;;1.10;;
74660;SDS011;63191;39.566;2.654;2023-04-10T04:00:19;1.80;;;0.50;;
74660;SDS011;63191;39.566;2.654;2023-04-10T04:02:46;2.00;;;0.60;;
74660;SDS011;63191;39.566;2.654;2023-04-10T04:05:16;2.40;;;0.70;;
74660;SDS011;63191;39.566;2.654;2023-04-10T04:07:43;3.10;;;0.60;;
74660;SDS011;63191;39.566;2.654;2023-04-10T04:10:09;3.10;;;0.70;;
74660;SDS011;63191;39.566;2.654;2023-04-10T04:12:39;4.10;;;0.60;;
74660;SDS011;63191;39.566;2.654;2023-04-10T04:15:07;2.80;;;0.70;;
74660;SDS011;63191;39.566;2.654;2023-04-10T04:17:33;3.50;;;0.70;;
74660;SDS011;63191;39.566;2.654;2023-04-10T04:19:58;1.70;;;0.60;;
74660;SDS011;63191;39.566;2.654;2023-04-10T04:22:24;4.20;;;0.70;;
74660;SDS011;63191;39.566;2.654;2023-04-10T04:24:50;2.70;;;0.80;;
74660;SDS011;63191;39.566;2.654;2023-04-10T04:27:16;3.40;;;0.70;;
74660;SDS011;63191;39.566;2.654;2023-04-10T04:29:44;3.30;;;0.80;;
74660;SDS011;63191;39.566;2.654;2023-04-10T04:32:10;3.50;;;1.00;;
74660;SDS011;63191;39.566;2.654;2023-04-10T04:34:35;3.70;;;0.90;;
74660;SDS011;63191;39.566;2.654;2023-04-10T04:37:01;4.10;;;1.10;;
74660;SDS011;63191;39.566;2.654;2023-04-10T04:39:27;3.90;;;1.10;;
74660;SDS011;63191;39.566;2.654;2023-04-10T04:41:53;4.70;;;1.50;;
74660;SDS011;63191;39.566;2.654;2023-04-10T04:44:18;6.60;;;1.30;;
74660;SDS011;63191;39.566;2.654;2023-04-10T04:46:45;5.20;;;1.20;;
74660;SDS011;63191;39.566;2.654;2023-04-10T04:49:12;3.80;;;1.00;;
74660;SDS011;63191;39.566;2.654;2023-04-10T04:51:38;4.00;;;1.00;;
74660;SDS011;63191;39.566;2.654;2023-04-10T04:54:04;4.80;;;1.10;;
74660;SDS011;63191;39.566;2.654;2023-04-10T04:56:30;4.90;;;0.90;;
74660;SDS011;63191;39.566;2.654;2023-04-10T04:58:55;4.10;;;0.80;;
74660;SDS011;63191;39.566;2.654;2023-04-10T05:01:21;3.70;;;1.00;;
74660;SDS011;63191;39.566;2.654;2023-04-10T05:03:47;3.70;;;0.90;;
74660;SDS011;63191;39.566;2.654;2023-04-10T05:06:12;4.40;;;0.90;;
74660;SDS011;63191;39.566;2.654;2023-04-10T05:08:39;4.40;;;0.90;;
74660;SDS011;63191;39.566;2.654;2023-04-10T05:11:05;3.20;;;0.70;;
74660;SDS011;63191;39.566;2.654;2023-04-10T05:13:31;3.90;;;0.80;;
74660;SDS011;63191;39.566;2.654;2023-04-10T05:15:58;3.10;;;0.90;;
74660;SDS011;63191;39.566;2.654;2023-04-10T05:18:23;4.90;;;1.00;;
74660;SDS011;63191;39.566;2.654;2023-04-10T05:20:50;4.20;;;0.90;;
74660;SDS011;63191;39.566;2.654;2023-04-10T05:23:17;3.60;;;0.80;;
74660;SDS011;63191;39.566;2.654;2023-04-10T05:25:42;4.20;;;1.00;;
74660;SDS011;63191;39.566;2.654;2023-04-10T05:28:08;6.10;;;1.10;;
74660;SDS011;63191;39.566;2.654;2023-04-10T05:30:34;3.10;;;1.20;;
74660;SDS011;63191;39.566;2.654;2023-04-10T05:33:00;6.40;;;1.00;;
74660;SDS011;63191;39.566;2.654;2023-04-10T05:35:25;4.20;;;0.80;;
74660;SDS011;63191;39.566;2.654;2023-04-10T05:37:51;4.00;;;0.70;;
74660;SDS011;63191;39.566;2.654;2023-04-10T05:40:17;4.20;;;0.90;;
74660;SDS011;63191;39.566;2.654;2023-04-10T05:42:42;2.90;;;0.80;;
74660;SDS011;63191;39.566;2.654;2023-04-10T05:45:09;3.40;;;0.70;;
74660;SDS011;63191;39.566;2.654;2023-04-10T05:47:35;3.40;;;1.00;;
74660;SDS011;63191;39.566;2.654;2023-04-10T05:50:01;4.70;;;0.90;;
74660;SDS011;63191;39.566;2.654;2023-04-10T05:52:26;2.70;;;0.70;;
74660;SDS011;63191;39.566;2.654;2023-04-10T05:54:52;5.50;;;0.80;;
74660;SDS011;63191;39.566;2.654;2023-04-10T05:57:19;4.00;;;1.00;;
74660;SDS011;63191;39.566;2.654;2023-04-10T05:59:46;4.00;;;0.80;;
74660;SDS011;63191;39.566;2.654;2023-04-10T06:02:13;3.80;;;1.00;;
74660;SDS011;63191;39.566;2.654;2023-04-10T06:04:40;3.00;;;0.90;;
74660;SDS011;63191;39.566;2.654;2023-04-10T06:07:05;2.80;;;0.80;;
74660;SDS011;63191;39.566;2.654;2023-04-10T06:09:32;6.10;;;1.30;;
74660;SDS011;63191;39.566;2.654;2023-04-10T06:11:58;4.30;;;1.00;;
74660;SDS011;63191;39.566;2.654;2023-04-10T06:14:24;4.60;;;1.10;;
74660;SDS011;63191;39.566;2.654;2023-04-10T06:16:49;4.60;;;1.30;;
74660;SDS011;63191;39.566;2.654;2023-04-10T06:19:17;4.10;;;1.30;;
74660;SDS011;63191;39.566;2.654;2023-04-10T06:21:42;6.00;;;1.40;;
74660;SDS011;63191;39.566;2.654;2023-04-10T06:24:08;4.60;;;1.30;;
74660;SDS011;63191;39.566;2.654;2023-04-10T06:26:36;4.20;;;1.20;;
74660;SDS011;63191;39.566;2.654;2023-04-10T06:29:02;6.20;;;1.50;;
74660;SDS011;63191;39.566;2.654;2023-04-10T06:31:31;6.40;;;1.80;;
74660;SDS011;63191;39.566;2.654;2023-04-10T06:33:58;5.00;;;1.60;;
74660;SDS011;63191;39.566;2.654;2023-04-10T06:36:24;4.30;;;1.40;;
74660;SDS011;63191;39.566;2.654;2023-04-10T06:38:51;4.80;;;1.70;;
74660;SDS011;63191;39.566;2.654;2023-04-10T06:41:16;5.60;;;1.60;;
74660;SDS011;63191;39.566;2.654;2023-04-10T06:43:43;5.20;;;1.70;;
74660;SDS011;63191;39.566;2.654;2023-04-10T06:46:11;5.30;;;2.00;;
74660;SDS011;63191;39.566;2.654;2023-04-10T06:48:41;5.10;;;1.70;;
74660;SDS011;63191;39.566;2.654;2023-04-10T06:51:07;6.00;;;1.90;;
74660;SDS011;63191;39.566;2.654;2023-04-10T06:53:32;7.50;;;1.80;;
74660;SDS011;63191;39.566;2.654;2023-04-10T06:55:58;7.80;;;2.30;;
74660;SDS011;63191;39.566;2.654;2023-04-10T06:58:24;7.20;;;2.00;;
74660;SDS011;63191;39.566;2.654;2023-04-10T07:00:50;5.80;;;2.10;;
74660;SDS011;63191;39.566;2.654;2023-04-10T07:03:15;7.60;;;2.20;;
74660;SDS011;63191;39.566;2.654;2023-04-10T07:05:41;6.20;;;2.50;;
74660;SDS011;63191;39.566;2.654;2023-04-10T07:08:07;6.60;;;3.10;;
74660;SDS011;63191;39.566;2.654;2023-04-10T07:10:33;8.00;;;3.20;;
74660;SDS011;63191;39.566;2.654;2023-04-10T07:13:00;7.80;;;3.00;;
74660;SDS011;63191;39.566;2.654;2023-04-10T07:15:26;6.10;;;2.90;;
74660;SDS011;63191;39.566;2.654;2023-04-10T07:17:52;7.70;;;3.00;;
74660;SDS011;63191;39.566;2.654;2023-04-10T07:20:17;6.60;;;2.40;;
74660;SDS011;63191;39.566;2.654;2023-04-10T07:22:43;5.90;;;2.70;;
74660;SDS011;63191;39.566;2.654;2023-04-10T07:25:09;7.10;;;2.70;;
74660;SDS011;63191;39.566;2.654;2023-04-10T07:27:35;6.80;;;2.50;;
74660;SDS011;63191;39.566;2.654;2023-04-10T07:30:01;7.30;;;2.50;;
74660;SDS011;63191;39.566;2.654;2023-04-10T07:32:26;4.50;;;1.50;;
74660;SDS011;63191;39.566;2.654;2023-04-10T07:34:52;5.80;;;2.00;;
74660;SDS011;63191;39.566;2.654;2023-04-10T07:37:18;6.00;;;1.50;;
74660;SDS011;63191;39.566;2.654;2023-04-10T07:39:45;5.90;;;1.60;;
74660;SDS011;63191;39.566;2.654;2023-04-10T07:42:11;5.00;;;1.50;;
74660;SDS011;63191;39.566;2.654;2023-04-10T07:44:37;6.70;;;1.70;;
74660;SDS011;63191;39.566;2.654;2023-04-10T07:47:02;6.00;;;1.80;;
74660;SDS011;63191;39.566;2.654;2023-04-10T07:49:28;5.90;;;1.60;;
74660;SDS011;63191;39.566;2.654;2023-04-10T07:51:54;5.40;;;1.50;;
74660;SDS011;63191;39.566;2.654;2023-04-10T07:54:20;3.20;;;1.20;;
74660;SDS011;63191;39.566;2.654;2023-04-10T07:56:45;3.70;;;1.30;;
74660;SDS011;63191;39.566;2.654;2023-04-10T07:59:11;5.40;;;1.30;;
74660;SDS011;63191;39.566;2.654;2023-04-10T08:01:37;4.00;;;1.40;;
74660;SDS011;63191;39.566;2.654;2023-04-10T08:04:02;4.90;;;1.60;;
74660;SDS011;63191;39.566;2.654;2023-04-10T08:06:28;3.90;;;1.40;;
74660;SDS011;63191;39.566;2.654;2023-04-10T08:08:56;4.20;;;1.20;;
74660;SDS011;63191;39.566;2.654;2023-04-10T08:11:31;3.80;;;1.20;;
74660;SDS011;63191;39.566;2.654;2023-04-10T08:14:00;4.90;;;1.40;;
74660;SDS011;63191;39.566;2.654;2023-04-10T08:16:32;2.30;;;0.70;;
74660;SDS011;63191;39.566;2.654;2023-04-10T08:18:59;3.20;;;0.70;;
74660;SDS011;63191;39.566;2.654;2023-04-10T08:21:27;3.50;;;1.00;;
74660;SDS011;63191;39.566;2.654;2023-04-10T08:23:55;4.40;;;1.20;;
74660;SDS011;63191;39.566;2.654;2023-04-10T08:26:22;4.10;;;1.20;;
74660;SDS011;63191;39.566;2.654;2023-04-10T08:28:53;3.40;;;1.00;;
74660;SDS011;63191;39.566;2.654;2023-04-10T08:31:22;2.10;;;0.70;;
74660;SDS011;63191;39.566;2.654;2023-04-10T08:33:49;2.70;;;0.80;;
74660;SDS011;63191;39.566;2.654;2023-04-10T08:36:15;2.30;;;0.70;;
74660;SDS011;63191;39.566;2.654;2023-04-10T08:38:42;4.80;;;0.80;;
74660;SDS011;63191;39.566;2.654;2023-04-10T08:41:16;3.10;;;0.70;;
74660;SDS011;63191;39.566;2.654;2023-04-10T08:43:43;2.40;;;0.60;;
74660;SDS011;63191;39.566;2.654;2023-04-10T08:46:11;2.70;;;0.70;;
74660;SDS011;63191;39.566;2.654;2023-04-10T08:51:50;3.20;;;0.60;;
74660;SDS011;63191;39.566;2.654;2023-04-10T08:54:27;3.40;;;1.00;;
74660;SDS011;63191;39.566;2.654;2023-04-10T08:56:55;3.40;;;1.00;;
74660;SDS011;63191;39.566;2.654;2023-04-10T08:59:23;2.40;;;1.00;;
74660;SDS011;63191;39.566;2.654;2023-04-10T09:01:49;4.40;;;0.90;;
74660;SDS011;63191;39.566;2.654;2023-04-10T09:04:15;2.30;;;0.70;;
74660;SDS011;63191;39.566;2.654;2023-04-10T09:06:43;2.80;;;0.70;;
74660;SDS011;63191;39.566;2.654;2023-04-10T09:09:09;3.90;;;0.70;;
74660;SDS011;63191;39.566;2.654;2023-04-10T09:14:24;3.40;;;1.00;;
74660;SDS011;63191;39.566;2.654;2023-04-10T09:17:15;2.30;;;0.80;;
74660;SDS011;63191;39.566;2.654;2023-04-10T09:19:49;3.80;;;0.80;;
74660;SDS011;63191;39.566;2.654;2023-04-10T09:22:17;3.70;;;1.00;;
74660;SDS011;63191;39.566;2.654;2023-04-10T09:24:53;2.60;;;0.90;;
74660;SDS011;63191;39.566;2.654;2023-04-10T09:27:32;3.70;;;0.90;;
74660;SDS011;63191;39.566;2.654;2023-04-10T09:30:02;3.70;;;0.90;;
74660;SDS011;63191;39.566;2.654;2023-04-10T09:35:12;2.70;;;0.80;;
74660;SDS011;63191;39.566;2.654;2023-04-10T09:37:40;4.80;;;1.10;;
74660;SDS011;63191;39.566;2.654;2023-04-10T09:40:24;3.60;;;0.90;;
74660;SDS011;63191;39.566;2.654;2023-04-10T09:42:52;4.80;;;1.30;;
74660;SDS011;63191;39.566;2.654;2023-04-10T09:45:20;2.40;;;0.90;;
74660;SDS011;63191;39.566;2.654;2023-04-10T09:48:07;2.00;;;0.80;;
74660;SDS011;63191;39.566;2.654;2023-04-10T09:50:37;3.90;;;0.90;;
74660;SDS011;63191;39.566;2.654;2023-04-10T09:53:06;2.30;;;0.80;;
74660;SDS011;63191;39.566;2.654;2023-04-10T09:55:33;4.40;;;0.80;;
74660;SDS011;63191;39.566;2.654;2023-04-10T09:58:04;2.10;;;0.80;;
74660;SDS011;63191;39.566;2.654;2023-04-10T10:00:57;4.20;;;0.90;;
74660;SDS011;63191;39.566;2.654;2023-04-10T10:03:23;2.90;;;1.10;;
74660;SDS011;63191;39.566;2.654;2023-04-10T10:05:50;3.90;;;0.90;;
74660;SDS011;63191;39.566;2.654;2023-04-10T10:08:20;2.70;;;0.90;;
74660;SDS011;63191;39.566;2.654;2023-04-10T10:10:52;2.20;;;0.80;;
74660;SDS011;63191;39.566;2.654;2023-04-10T10:13:36;3.20;;;0.80;;
74660;SDS011;63191;39.566;2.654;2023-04-10T10:16:15;3.10;;;0.90;;
74660;SDS011;63191;39.566;2.654;2023-04-10T10:21:37;2.40;;;0.70;;
74660;SDS011;63191;39.566;2.654;2023-04-10T10:24:08;2.40;;;1.00;;
74660;SDS011;63191;39.566;2.654;2023-04-10T10:26:35;3.40;;;0.70;;
74660;SDS011;63191;39.566;2.654;2023-04-10T10:29:07;2.60;;;0.80;;
74660;SDS011;63191;39.566;2.654;2023-04-10T10:31:39;2.30;;;0.70;;
74660;SDS011;63191;39.566;2.654;2023-04-10T10:34:05;2.20;;;0.80;;
74660;SDS011;63191;39.566;2.654;2023-04-10T10:36:42;2.20;;;0.70;;
74660;SDS011;63191;39.566;2.654;2023-04-10T10:39:49;2.50;;;0.80;;
74660;SDS011;63191;39.566;2.654;2023-04-10T10:42:52;2.70;;;0.90;;
74660;SDS011;63191;39.566;2.654;2023-04-10T10:48:58;2.90;;;1.00;;
74660;SDS011;63191;39.566;2.654;2023-04-10T10:54:33;2.10;;;0.70;;
74660;SDS011;63191;39.566;2.654;2023-04-10T10:57:01;2.90;;;0.70;;
74660;SDS011;63191;39.566;2.654;2023-04-10T11:02:18;2.50;;;0.70;;
74660;SDS011;63191;39.566;2.654;2023-04-10T11:04:49;3.20;;;1.00;;
74660;SDS011;63191;39.566;2.654;2023-04-10T11:07:16;3.40;;;0.80;;
74660;SDS011;63191;39.566;2.654;2023-04-10T11:12:11;2.30;;;0.70;;
74660;SDS011;63191;39.566;2.654;2023-04-10T11:14:37;3.30;;;0.70;;
74660;SDS011;63191;39.566;2.654;2023-04-10T11:17:05;2.90;;;0.70;;
74660;SDS011;63191;39.566;2.654;2023-04-10T11:19:57;2.80;;;0.70;;
74660;SDS011;63191;39.566;2.654;2023-04-10T11:22:25;2.20;;;0.80;;
74660;SDS011;63191;39.566;2.654;2023-04-10T11:24:56;1.40;;;0.60;;
74660;SDS011;63191;39.566;2.654;2023-04-10T11:27:46;3.10;;;0.80;;
74660;SDS011;63191;39.566;2.654;2023-04-10T11:30:34;2.10;;;0.70;;
74660;SDS011;63191;39.566;2.654;2023-04-10T11:33:02;2.40;;;0.70;;
74660;SDS011;63191;39.566;2.654;2023-04-10T11:35:29;2.20;;;0.60;;
74660;SDS011;63191;39.566;2.654;2023-04-10T11:38:31;2.10;;;0.50;;
74660;SDS011;63191;39.566;2.654;2023-04-10T11:41:00;2.40;;;0.70;;
74660;SDS011;63191;39.566;2.654;2023-04-10T11:43:29;1.80;;;0.60;;
74660;SDS011;63191;39.566;2.654;2023-04-10T11:48:29;2.50;;;0.60;;
74660;SDS011;63191;39.566;2.654;2023-04-10T11:53:29;2.00;;;0.60;;
74660;SDS011;63191;39.566;2.654;2023-04-10T11:56:16;3.00;;;0.80;;
74660;SDS011;63191;39.566;2.654;2023-04-10T11:58:49;3.10;;;0.50;;
74660;SDS011;63191;39.566;2.654;2023-04-10T12:01:50;1.40;;;0.50;;
74660;SDS011;63191;39.566;2.654;2023-04-10T12:04:56;2.00;;;0.70;;
74660;SDS011;63191;39.566;2.654;2023-04-10T12:07:23;3.90;;;0.80;;
74660;SDS011;63191;39.566;2.654;2023-04-10T12:09:56;2.80;;;0.80;;
74660;SDS011;63191;39.566;2.654;2023-04-10T12:12:35;1.80;;;0.60;;
74660;SDS011;63191;39.566;2.654;2023-04-10T12:15:03;3.70;;;0.90;;
74660;SDS011;63191;39.566;2.654;2023-04-10T12:17:31;4.30;;;0.80;;
74660;SDS011;63191;39.566;2.654;2023-04-10T12:20:03;1.60;;;0.80;;
74660;SDS011;63191;39.566;2.654;2023-04-10T12:22:31;3.30;;;1.30;;
74660;SDS011;63191;39.566;2.654;2023-04-10T12:24:58;3.10;;;0.70;;
74660;SDS011;63191;39.566;2.654;2023-04-10T12:27:34;1.30;;;0.70;;
74660;SDS011;63191;39.566;2.654;2023-04-10T12:30:15;3.20;;;0.70;;
74660;SDS011;63191;39.566;2.654;2023-04-10T12:32:50;4.60;;;2.10;;
74660;SDS011;63191;39.566;2.654;2023-04-10T12:35:36;3.70;;;1.20;;
74660;SDS011;63191;39.566;2.654;2023-04-10T12:38:08;3.10;;;1.10;;
74660;SDS011;63191;39.566;2.654;2023-04-10T12:40:58;3.00;;;1.20;;
74660;SDS011;63191;39.566;2.654;2023-04-10T12:43:35;2.00;;;0.80;;
74660;SDS011;63191;39.566;2.654;2023-04-10T12:46:07;2.90;;;1.20;;
74660;SDS011;63191;39.566;2.654;2023-04-10T12:48:35;1.20;;;0.70;;
74660;SDS011;63191;39.566;2.654;2023-04-10T12:51:03;3.30;;;1.10;;
74660;SDS011;63191;39.566;2.654;2023-04-10T12:53:50;2.30;;;1.20;;
74660;SDS011;63191;39.566;2.654;2023-04-10T12:56:25;2.50;;;1.30;;
74660;SDS011;63191;39.566;2.654;2023-04-10T12:59:05;2.90;;;1.40;;
74660;SDS011;63191;39.566;2.654;2023-04-10T13:01:31;2.90;;;1.90;;
74660;SDS011;63191;39.566;2.654;2023-04-10T13:03:57;5.00;;;2.90;;
74660;SDS011;63191;39.566;2.654;2023-04-10T13:06:23;3.90;;;2.20;;
74660;SDS011;63191;39.566;2.654;2023-04-10T13:08:49;5.50;;;3.10;;
74660;SDS011;63191;39.566;2.654;2023-04-10T13:11:17;4.00;;;3.00;;
74660;SDS011;63191;39.566;2.654;2023-04-10T13:13:42;4.30;;;2.90;;
74660;SDS011;63191;39.566;2.654;2023-04-10T13:16:10;5.70;;;4.10;;
74660;SDS011;63191;39.566;2.654;2023-04-10T13:18:37;4.10;;;3.00;;
74660;SDS011;63191;39.566;2.654;2023-04-10T13:21:03;5.10;;;3.40;;
74660;SDS011;63191;39.566;2.654;2023-04-10T13:23:29;4.30;;;3.00;;
74660;SDS011;63191;39.566;2.654;2023-04-10T13:25:55;4.80;;;3.20;;
74660;SDS011;63191;39.566;2.654;2023-04-10T13:28:23;4.50;;;3.30;;
74660;SDS011;63191;39.566;2.654;2023-04-10T13:30:50;4.30;;;2.90;;
74660;SDS011;63191;39.566;2.654;2023-04-10T13:33:18;4.10;;;2.30;;
74660;SDS011;63191;39.566;2.654;2023-04-10T13:35:46;4.50;;;2.20;;
74660;SDS011;63191;39.566;2.654;2023-04-10T13:38:15;5.20;;;2.30;;
74660;SDS011;63191;39.566;2.654;2023-04-10T13:40:41;2.70;;;2.00;;
74660;SDS011;63191;39.566;2.654;2023-04-10T13:43:06;3.90;;;1.90;;
74660;SDS011;63191;39.566;2.654;2023-04-10T13:45:32;3.40;;;1.60;;
74660;SDS011;63191;39.566;2.654;2023-04-10T13:47:59;3.60;;;1.60;;
74660;SDS011;63191;39.566;2.654;2023-04-10T13:50:25;2.00;;;1.30;;
74660;SDS011;63191;39.566;2.654;2023-04-10T13:52:51;3.40;;;1.30;;
74660;SDS011;63191;39.566;2.654;2023-04-10T13:55:17;1.80;;;1.00;;
74660;SDS011;63191;39.566;2.654;2023-04-10T13:57:42;3.60;;;1.60;;
74660;SDS011;63191;39.566;2.654;2023-04-10T14:00:09;1.80;;;0.80;;
74660;SDS011;63191;39.566;2.654;2023-04-10T14:02:36;3.10;;;0.90;;
74660;SDS011;63191;39.566;2.654;2023-04-10T14:05:03;3.00;;;1.00;;
74660;SDS011;63191;39.566;2.654;2023-04-10T14:07:29;3.10;;;1.20;;
74660;SDS011;63191;39.566;2.654;2023-04-10T14:10:17;3.40;;;0.90;;
74660;SDS011;63191;39.566;2.654;2023-04-10T14:12:45;2.00;;;0.70;;
74660;SDS011;63191;39.566;2.654;2023-04-10T14:15:10;2.10;;;0.70;;
74660;SDS011;63191;39.566;2.654;2023-04-10T14:17:36;5.40;;;0.90;;
74660;SDS011;63191;39.566;2.654;2023-04-10T14:20:02;1.90;;;0.60;;
74660;SDS011;63191;39.566;2.654;2023-04-10T14:22:50;2.60;;;0.70;;
74660;SDS011;63191;39.566;2.654;2023-04-10T14:25:19;3.10;;;0.60;;
74660;SDS011;63191;39.566;2.654;2023-04-10T14:27:45;2.50;;;0.50;;
74660;SDS011;63191;39.566;2.654;2023-04-10T14:30:11;1.90;;;0.60;;
74660;SDS011;63191;39.566;2.654;2023-04-10T14:32:38;2.80;;;0.60;;
74660;SDS011;63191;39.566;2.654;2023-04-10T14:35:12;2.80;;;0.70;;
74660;SDS011;63191;39.566;2.654;2023-04-10T14:37:38;2.40;;;0.60;;
74660;SDS011;63191;39.566;2.654;2023-04-10T14:40:10;1.50;;;0.50;;
74660;SDS011;63191;39.566;2.654;2023-04-10T14:42:37;1.60;;;0.60;;
74660;SDS011;63191;39.566;2.654;2023-04-10T14:45:07;3.30;;;0.70;;
74660;SDS011;63191;39.566;2.654;2023-04-10T14:47:36;2.70;;;0.50;;
74660;SDS011;63191;39.566;2.654;2023-04-10T14:50:08;2.70;;;0.60;;
74660;SDS011;63191;39.566;2.654;2023-04-10T14:52:38;1.40;;;0.40;;
74660;SDS011;63191;39.566;2.654;2023-04-10T14:55:28;1.70;;;0.50;;
74660;SDS011;63191;39.566;2.654;2023-04-10T14:57:56;2.00;;;0.60;;
74660;SDS011;63191;39.566;2.654;2023-04-10T15:00:22;0.60;;;0.30;;
74660;SDS011;63191;39.566;2.654;2023-04-10T15:02:51;1.20;;;0.40;;
74660;SDS011;63191;39.566;2.654;2023-04-10T15:05:26;2.80;;;0.50;;
74660;SDS011;63191;39.566;2.654;2023-04-10T15:10:20;1.60;;;0.40;;
74660;SDS011;63191;39.566;2.654;2023-04-10T15:13:38;1.80;;;0.50;;
74660;SDS011;63191;39.566;2.654;2023-04-10T15:16:07;1.80;;;0.40;;
74660;SDS011;63191;39.566;2.654;2023-04-10T15:20:58;3.10;;;0.50;;
74660;SDS011;63191;39.566;2.654;2023-04-10T15:23:26;1.00;;;0.40;;
74660;SDS011;63191;39.566;2.654;2023-04-10T15:28:20;1.10;;;0.40;;
74660;SDS011;63191;39.566;2.654;2023-04-10T15:30:50;4.20;;;0.50;;
74660;SDS011;63191;39.566;2.654;2023-04-10T15:35:57;2.50;;;0.50;;
74660;SDS011;63191;39.566;2.654;2023-04-10T15:38:25;2.50;;;0.60;;
74660;SDS011;63191;39.566;2.654;2023-04-10T15:40:55;2.10;;;0.60;;
74660;SDS011;63191;39.566;2.654;2023-04-10T15:43:21;1.50;;;0.50;;
74660;SDS011;63191;39.566;2.654;2023-04-10T15:46:17;2.30;;;0.60;;
74660;SDS011;63191;39.566;2.654;2023-04-10T15:48:46;1.60;;;0.40;;
74660;SDS011;63191;39.566;2.654;2023-04-10T15:51:12;2.30;;;0.40;;